Time;durP1;ratioP1;P1;durP2;ratioP2;P2;SDS_P1;SDS_P2;PMS_P1;PMS_P2;Temp;Humidity;BMP_temperature;BMP_pressure;BME280_temperature;BME280_humidity;BME280_pressure;Samples;Min_cycle;Max_cycle;Signal;HPM_P1;HPM_P2
2023/04/15 00:01:18;;;;;;;;;;;;;;;21.48;55.17;96133.77;611598;230;63889;-59
2023/04/15 00:03:46;;;;;;;;;;;;;;;21.46;52.27;96137.82;613490;230;67275;-59
2023/04/15 00:06:13;;;;;;;;;;;;;;;21.47;54.16;96132.19;616839;230;67356;-59
2023/04/15 00:08:41;;;;;;;;;;;;;;;21.46;55.43;96143.95;612957;230;65179;-59
2023/04/15 00:11:09;;;;;;;;;;;;;;;21.46;54.22;96141.28;611990;230;64981;-59
2023/04/15 00:13:37;;;;;;;;;;;;;;;21.46;54.12;96129.80;616471;230;67060;-59
2023/04/15 00:16:05;;;;;;;;;;;;;;;21.46;54.38;96124.45;614297;230;65082;-59
2023/04/15 00:18:32;;;;;;;;;;;;;;;21.45;54.50;96118.33;611556;230;67143;-59
2023/04/15 00:21:00;;;;;;;;;;;;;;;21.44;55.13;96123.95;611721;230;66999;-59
2023/04/15 00:23:28;;;;;;;;;;;;;;;21.44;53.55;96126.63;616260;230;65027;-59
2023/04/15 00:25:55;;;;;;;;;;;;;;;21.44;52.20;96138.13;616528;230;66770;-59
2023/04/15 00:28:23;;;;;;;;;;;;;;;21.45;52.96;96139.70;616539;230;64905;-59
2023/04/15 00:30:50;;;;;;;;;;;;;;;21.43;53.50;96131.18;616248;230;65050;-59
2023/04/15 00:33:18;;;;;;;;;;;;;;;21.43;53.22;96139.20;611569;230;68090;-59
2023/04/15 00:35:47;;;;;;;;;;;;;;;21.43;55.01;96133.86;611553;230;64630;-59
2023/04/15 00:38:14;;;;;;;;;;;;;;;21.43;54.06;96130.39;614141;230;63623;-59
2023/04/15 00:40:42;;;;;;;;;;;;;;;21.43;54.11;96130.39;612794;230;67595;-59
2023/04/15 00:43:10;;;;;;;;;;;;;;;21.42;52.81;96128.82;611526;230;67060;-59
2023/04/15 00:45:38;;;;;;;;;;;;;;;21.42;53.31;96134.17;611559;230;65159;-59
2023/04/15 00:48:05;;;;;;;;;;;;;;;21.42;54.80;96139.52;613934;230;67276;-59
2023/04/15 00:50:33;;;;;;;;;;;;;;;21.42;54.25;96142.97;612993;230;64854;-59
2023/04/15 00:53:00;;;;;;;;;;;;;;;21.41;52.99;96145.92;611549;230;62740;-59
2023/04/15 00:55:28;;;;;;;;;;;;;;;21.41;52.19;96140.58;612824;230;67064;-59
2023/04/15 00:57:56;;;;;;;;;;;;;;;21.40;54.05;96137.13;616599;230;66841;-59
2023/04/15 01:00:24;;;;;;;;;;;;;;;21.40;51.96;96136.33;613363;230;65522;-59
2023/04/15 01:02:52;;;;;;;;;;;;;;;21.40;53.41;96134.45;611537;230;64618;-59
2023/04/15 01:05:20;;;;;;;;;;;;;;;21.39;53.07;96146.23;609065;230;64931;-59
2023/04/15 01:07:48;;;;;;;;;;;;;;;21.39;52.44;96140.08;614543;230;65046;-59
2023/04/15 01:10:15;;;;;;;;;;;;;;;21.38;52.08;96144.63;614536;230;67282;-59
2023/04/15 01:12:43;;;;;;;;;;;;;;;21.38;52.38;96155.33;612956;230;64699;-59
2023/04/15 01:15:11;;;;;;;;;;;;;;;21.39;53.35;96150.77;611515;230;65077;-59
2023/04/15 01:17:39;;;;;;;;;;;;;;;21.39;53.89;96153.44;612962;230;67173;-59
2023/04/15 01:20:09;;;;;;;;;;;;;;;21.38;55.04;96149.98;614530;230;67732;-59
2023/04/15 01:22:38;;;;;;;;;;;;;;;21.38;53.55;96151.86;611967;230;65067;-59
2023/04/15 01:25:09;;;;;;;;;;;;;;;21.38;55.08;96149.19;611525;230;44416;-58
2023/04/15 01:27:38;;;;;;;;;;;;;;;21.37;53.05;96148.41;611210;230;67268;-58
2023/04/15 01:30:08;;;;;;;;;;;;;;;21.36;50.72;96141.45;611554;230;65153;-59
2023/04/15 01:32:36;;;;;;;;;;;;;;;21.38;53.49;96138.50;611621;231;67172;-59
2023/04/15 01:35:03;;;;;;;;;;;;;;;21.37;54.58;96148.41;611796;230;66759;-59
2023/04/15 01:37:32;;;;;;;;;;;;;;;21.37;52.99;96142.23;616326;230;65313;-59
2023/04/15 01:39:59;;;;;;;;;;;;;;;21.35;53.36;96150.54;614705;230;66703;-59
2023/04/15 01:42:27;;;;;;;;;;;;;;;21.35;51.63;96142.52;615025;230;66765;-59
2023/04/15 01:44:54;;;;;;;;;;;;;;;21.35;51.58;96150.54;612413;230;63115;-59
2023/04/15 01:47:22;;;;;;;;;;;;;;;21.36;50.51;96156.67;614852;230;65891;-59
2023/04/15 01:49:50;;;;;;;;;;;;;;;21.36;54.22;96157.48;611592;230;65429;-59
2023/04/15 01:52:18;;;;;;;;;;;;;;;21.35;51.93;96153.21;611607;231;62821;-59
2023/04/15 01:54:45;;;;;;;;;;;;;;;21.34;55.15;96156.98;611597;230;66895;-59
2023/04/15 01:57:13;;;;;;;;;;;;;;;21.33;52.15;96158.05;615425;230;66794;-59
2023/04/15 01:59:41;;;;;;;;;;;;;;;21.34;54.75;96153.52;613141;230;65181;-59
2023/04/15 02:02:09;;;;;;;;;;;;;;;21.33;53.99;96155.38;614481;230;67972;-59
2023/04/15 02:04:37;;;;;;;;;;;;;;;21.33;53.18;96157.27;612002;230;67002;-59
2023/04/15 02:07:04;;;;;;;;;;;;;;;21.33;54.07;96158.05;611837;230;62683;-59
2023/04/15 02:09:32;;;;;;;;;;;;;;;21.33;53.67;96158.05;615533;230;64860;-59
2023/04/15 02:12:00;;;;;;;;;;;;;;;21.32;55.04;96153.80;613703;230;66887;-59
2023/04/15 02:14:28;;;;;;;;;;;;;;;21.32;54.07;96153.80;613285;230;62508;-59
2023/04/15 02:16:56;;;;;;;;;;;;;;;21.31;52.43;96141.54;615377;230;64884;-59
2023/04/15 02:19:24;;;;;;;;;;;;;;;21.32;54.78;96145.78;613544;230;66994;-59
2023/04/15 02:21:51;;;;;;;;;;;;;;;21.32;54.49;96132.42;614465;230;62860;-59
2023/04/15 02:24:19;;;;;;;;;;;;;;;21.32;55.93;96139.66;614683;230;64852;-59
2023/04/15 02:26:46;;;;;;;;;;;;;;;21.31;53.17;96148.73;612875;230;66804;-59
2023/04/15 02:29:15;;;;;;;;;;;;;;;21.29;53.38;96157.85;616033;230;66238;-59
2023/04/15 02:31:43;;;;;;;;;;;;;;;21.30;53.83;96174.67;616300;230;67162;-59
2023/04/15 02:34:13;;;;;;;;;;;;;;;21.29;53.90;96178.45;616277;230;65111;-59
2023/04/15 02:36:42;;;;;;;;;;;;;;;21.31;55.87;96194.98;612915;230;42126;-59
2023/04/15 02:39:11;;;;;;;;;;;;;;;21.28;54.35;96191.02;615415;230;64487;-59
2023/04/15 02:41:39;;;;;;;;;;;;;;;21.28;55.52;96193.69;611608;231;64916;-59
2023/04/15 02:44:08;;;;;;;;;;;;;;;21.27;53.67;96192.08;611595;230;65699;-59
2023/04/15 02:46:36;;;;;;;;;;;;;;;21.28;55.69;96193.69;611611;230;65869;-59
2023/04/15 02:49:05;;;;;;;;;;;;;;;21.27;54.27;96201.98;611524;230;67009;-59
2023/04/15 02:51:32;;;;;;;;;;;;;;;21.28;53.65;96219.63;611684;230;66011;-59
2023/04/15 02:54:00;;;;;;;;;;;;;;;21.28;53.87;96230.31;613936;230;66843;-59
2023/04/15 02:56:29;;;;;;;;;;;;;;;21.27;54.77;96218.81;616496;230;67732;-59
2023/04/15 02:58:57;;;;;;;;;;;;;;;21.27;52.63;96218.81;612295;230;65041;-58
2023/04/15 03:01:25;;;;;;;;;;;;;;;21.26;54.56;96211.89;612509;230;65363;-59
2023/04/15 03:03:52;;;;;;;;;;;;;;;21.26;53.37;96211.10;614439;230;67063;-59
2023/04/15 03:06:20;;;;;;;;;;;;;;;21.25;53.52;96214.84;614346;230;62663;-59
2023/04/15 03:08:49;;;;;;;;;;;;;;;21.25;53.45;96217.52;612568;230;45764;-59
2023/04/15 03:11:17;;;;;;;;;;;;;;;21.24;52.32;96214.05;611524;230;65730;-59
2023/04/15 03:13:47;;;;;;;;;;;;;;;21.24;53.16;96211.38;613042;230;45253;-59
2023/04/15 03:16:16;;;;;;;;;;;;;;;21.25;52.49;96212.16;613373;230;45732;-59
2023/04/15 03:18:44;;;;;;;;;;;;;;;21.24;53.06;96226.63;612480;230;64666;-59
2023/04/15 03:21:12;;;;;;;;;;;;;;;21.24;50.66;96219.39;612163;230;65701;-59
2023/04/15 03:23:40;;;;;;;;;;;;;;;21.25;54.10;96214.84;614800;230;67271;-59
2023/04/15 03:26:07;;;;;;;;;;;;;;;21.23;51.34;96225.84;611586;230;64649;-59
2023/04/15 03:28:36;;;;;;;;;;;;;;;21.24;53.28;96221.28;612435;231;65643;-59
2023/04/15 03:31:03;;;;;;;;;;;;;;;21.24;53.82;96223.95;611726;230;67221;-59
2023/04/15 03:33:31;;;;;;;;;;;;;;;21.22;51.39;96220.77;611597;230;67488;-59
2023/04/15 03:35:59;;;;;;;;;;;;;;;21.23;53.99;96211.69;611587;230;62530;-59
2023/04/15 03:38:26;;;;;;;;;;;;;;;21.22;54.50;96202.06;611571;230;67242;-59
2023/04/15 03:40:54;;;;;;;;;;;;;;;21.21;53.74;96222.66;611641;230;66885;-59
2023/04/15 03:43:22;;;;;;;;;;;;;;;21.21;52.48;96222.66;614520;230;65054;-59
2023/04/15 03:45:49;;;;;;;;;;;;;;;21.21;53.05;96233.34;611974;230;67224;-59
2023/04/15 03:48:17;;;;;;;;;;;;;;;21.21;54.51;96230.67;614165;230;67358;-59
2023/04/15 03:50:45;;;;;;;;;;;;;;;21.20;52.54;96242.45;612740;230;65066;-59
2023/04/15 03:53:12;;;;;;;;;;;;;;;21.20;54.68;96244.34;615524;230;67374;-59
2023/04/15 03:55:40;;;;;;;;;;;;;;;21.20;54.90;96247.80;612549;230;67035;-59
2023/04/15 03:58:08;;;;;;;;;;;;;;;21.19;54.57;96242.73;611545;230;64881;-59
2023/04/15 04:00:35;;;;;;;;;;;;;;;21.19;52.11;96243.52;611562;230;67162;-59
2023/04/15 04:03:03;;;;;;;;;;;;;;;21.20;53.60;96257.70;615574;230;67013;-59
2023/04/15 04:05:30;;;;;;;;;;;;;;;21.20;55.45;96268.38;616302;230;65032;-59
2023/04/15 04:07:58;;;;;;;;;;;;;;;21.18;53.25;96274.00;616319;230;67020;-59
2023/04/15 04:10:26;;;;;;;;;;;;;;;21.18;51.30;96268.66;609169;230;67072;-59
2023/04/15 04:12:53;;;;;;;;;;;;;;;21.18;51.18;96257.97;610259;230;65084;-59
2023/04/15 04:15:20;;;;;;;;;;;;;;;21.18;52.63;96274.00;612266;230;65157;-59
2023/04/15 04:17:48;;;;;;;;;;;;;;;21.19;54.15;96272.13;616268;230;65213;-59
2023/04/15 04:20:15;;;;;;;;;;;;;;;21.16;52.46;96278.84;613761;230;63008;-59
2023/04/15 04:22:43;;;;;;;;;;;;;;;21.17;52.30;96283.11;611647;230;64989;-59
2023/04/15 04:25:10;;;;;;;;;;;;;;;21.17;52.61;96282.30;612537;230;66999;-59
2023/04/15 04:27:38;;;;;;;;;;;;;;;21.18;54.15;96289.25;611581;230;64988;-59
2023/04/15 04:30:06;;;;;;;;;;;;;;;21.17;54.63;96288.46;613830;230;67316;-59
2023/04/15 04:32:34;;;;;;;;;;;;;;;21.15;52.32;96287.95;616679;230;67124;-59
2023/04/15 04:35:02;;;;;;;;;;;;;;;21.15;55.41;96290.62;612483;230;62924;-59
2023/04/15 04:37:29;;;;;;;;;;;;;;;21.16;55.85;96304.77;616691;230;64835;-59
2023/04/15 04:39:56;;;;;;;;;;;;;;;21.16;55.62;96312.78;614313;230;64930;-59
2023/04/15 04:42:24;;;;;;;;;;;;;;;21.15;52.54;96316.55;614424;230;65080;-59
2023/04/15 04:44:51;;;;;;;;;;;;;;;21.15;51.59;96321.89;612560;230;65882;-59
2023/04/15 04:47:19;;;;;;;;;;;;;;;21.14;51.46;96323.75;613285;230;64927;-59
2023/04/15 04:49:47;;;;;;;;;;;;;;;21.15;54.25;96329.91;614684;230;63895;-59
2023/04/15 04:52:14;;;;;;;;;;;;;;;21.15;55.32;96332.58;611561;230;67201;-59
2023/04/15 04:54:42;;;;;;;;;;;;;;;21.14;51.42;96325.63;615017;230;66814;-59
2023/04/15 04:57:12;;;;;;;;;;;;;;;21.14;54.07;96330.97;615803;230;65139;-59
2023/04/15 04:59:39;;;;;;;;;;;;;;;21.12;54.50;96339.30;611550;230;71697;-59
2023/04/15 05:02:07;;;;;;;;;;;;;;;21.13;53.67;96340.08;611560;230;67285;-59
2023/04/15 05:04:36;;;;;;;;;;;;;;;21.13;51.98;96342.75;611554;230;64933;-59
2023/04/15 05:07:03;;;;;;;;;;;;;;;21.13;52.54;96348.09;612703;230;67218;-59
2023/04/15 05:09:31;;;;;;;;;;;;;;;21.11;52.95;96343.02;615205;230;67105;-59
2023/04/15 05:12:00;;;;;;;;;;;;;;;21.11;49.58;96342.23;613617;230;65178;-59
2023/04/15 05:14:27;;;;;;;;;;;;;;;21.12;54.15;96336.62;616684;230;67233;-59
2023/04/15 05:16:55;;;;;;;;;;;;;;;21.11;51.30;96339.56;612596;230;67016;-59
2023/04/15 05:19:23;;;;;;;;;;;;;;;21.10;51.73;96341.45;611483;230;64964;-59
2023/04/15 05:21:50;;;;;;;;;;;;;;;21.11;53.48;96334.22;612354;230;66845;-59
2023/04/15 05:24:18;;;;;;;;;;;;;;;21.11;54.88;96339.56;614172;230;66972;-59
2023/04/15 05:26:45;;;;;;;;;;;;;;;21.11;54.86;96348.38;612815;230;65081;-59
2023/04/15 05:29:13;;;;;;;;;;;;;;;21.10;53.90;96341.45;611632;230;67389;-59
2023/04/15 05:31:40;;;;;;;;;;;;;;;21.09;54.84;96339.05;613800;230;67060;-59
2023/04/15 05:34:09;;;;;;;;;;;;;;;21.09;53.15;96347.89;616272;230;62986;-59
2023/04/15 05:36:36;;;;;;;;;;;;;;;21.09;53.67;96339.05;613895;230;67158;-59
2023/04/15 05:39:04;;;;;;;;;;;;;;;21.09;51.37;96344.39;615621;230;66996;-59
2023/04/15 05:41:31;;;;;;;;;;;;;;;21.09;53.02;96347.89;611580;230;65053;-59
2023/04/15 05:43:59;;;;;;;;;;;;;;;21.09;54.51;96347.89;613578;230;66942;-59
2023/04/15 05:46:26;;;;;;;;;;;;;;;21.08;53.43;96348.95;613420;230;64616;-59
2023/04/15 05:48:54;;;;;;;;;;;;;;;21.08;54.51;96345.48;611589;230;65114;-59
2023/04/15 05:51:21;;;;;;;;;;;;;;;21.08;51.22;96348.16;612329;230;66679;-59
2023/04/15 05:53:49;;;;;;;;;;;;;;;21.08;52.33;96358.84;616286;230;66847;-59
2023/04/15 05:56:16;;;;;;;;;;;;;;;21.08;53.16;96356.17;613726;230;63044;-59
2023/04/15 05:58:44;;;;;;;;;;;;;;;21.05;51.85;96355.66;611592;230;66845;-59
2023/04/15 06:01:11;;;;;;;;;;;;;;;21.07;54.78;96355.39;611626;230;66752;-59
2023/04/15 06:03:39;;;;;;;;;;;;;;;21.06;53.20;96362.61;612520;230;65031;-59
2023/04/15 06:06:06;;;;;;;;;;;;;;;21.06;52.26;96367.95;613758;230;66875;-59
2023/04/15 06:08:34;;;;;;;;;;;;;;;21.07;54.60;96371.41;613193;230;66993;-59
2023/04/15 06:11:01;;;;;;;;;;;;;;;21.06;51.59;96357.27;611520;230;65077;-59
2023/04/15 06:13:29;;;;;;;;;;;;;;;21.06;51.46;96359.94;611546;230;67178;-59
2023/04/15 06:15:56;;;;;;;;;;;;;;;21.05;52.28;96355.66;611548;230;67438;-59
2023/04/15 06:18:26;;;;;;;;;;;;;;;21.06;50.48;96359.13;611613;230;65100;-59
2023/04/15 06:20:53;;;;;;;;;;;;;;;21.06;50.91;96367.13;611562;230;65115;-59
2023/04/15 06:23:20;;;;;;;;;;;;;;;21.08;50.53;96369.53;615389;230;64900;-59
2023/04/15 06:25:48;;;;;;;;;;;;;;;21.09;51.40;96365.77;613338;230;62848;-59
2023/04/15 06:28:15;;;;;;;;;;;;;;;21.08;50.57;96364.19;614067;230;64879;-59
2023/04/15 06:30:43;;;;;;;;;;;;;;;21.08;51.19;96366.86;611631;230;64978;-59
2023/04/15 06:33:12;;;;;;;;;;;;;;;21.08;50.70;96364.98;615179;230;46946;-59
2023/04/15 06:35:40;;;;;;;;;;;;;;;21.09;50.47;96360.42;611925;230;64564;-59
2023/04/15 06:38:07;;;;;;;;;;;;;;;21.09;52.45;96369.26;612206;230;64827;-59
2023/04/15 06:40:34;;;;;;;;;;;;;;;21.08;50.85;96364.98;611508;230;62682;-60
2023/04/15 06:43:03;;;;;;;;;;;;;;;21.10;53.18;96367.38;611588;230;65245;-59
2023/04/15 06:45:31;;;;;;;;;;;;;;;21.09;50.98;96366.59;611612;230;67173;-59
2023/04/15 06:47:58;;;;;;;;;;;;;;;21.10;53.33;96372.72;611593;230;65067;-59
2023/04/15 06:50:26;;;;;;;;;;;;;;;21.10;53.18;96364.70;611612;230;67222;-59
2023/04/15 06:52:54;;;;;;;;;;;;;;;21.09;51.78;96371.93;615286;230;66983;-59
2023/04/15 06:55:21;;;;;;;;;;;;;;;21.10;51.22;96372.72;612398;230;65053;-59
2023/04/15 06:57:49;;;;;;;;;;;;;;;21.09;52.58;96374.60;614664;230;67124;-59
2023/04/15 07:00:17;;;;;;;;;;;;;;;21.09;51.98;96363.91;612239;230;67203;-59
2023/04/15 07:02:45;;;;;;;;;;;;;;;21.09;51.06;96369.26;611925;230;65055;-59
2023/04/15 07:05:13;;;;;;;;;;;;;;;21.09;51.69;96363.09;616305;230;64997;-59
2023/04/15 07:07:41;;;;;;;;;;;;;;;21.08;50.45;96362.30;615280;230;65010;-59
2023/04/15 07:10:08;;;;;;;;;;;;;;;21.10;52.91;96359.36;612288;230;65020;-59
2023/04/15 07:12:36;;;;;;;;;;;;;;;21.10;51.38;96362.03;614709;230;67262;-59
2023/04/15 07:15:04;;;;;;;;;;;;;;;21.09;51.11;96360.42;612320;230;67039;-58
2023/04/15 07:17:32;;;;;;;;;;;;;;;21.09;51.90;96360.42;616285;230;65160;-59
2023/04/15 07:19:59;;;;;;;;;;;;;;;21.08;50.64;96364.98;614284;230;67165;-59
2023/04/15 07:22:27;;;;;;;;;;;;;;;21.10;52.73;96359.36;611688;230;64706;-59
2023/04/15 07:24:54;;;;;;;;;;;;;;;21.09;50.46;96363.09;615311;230;65060;-59
2023/04/15 07:27:22;;;;;;;;;;;;;;;21.09;50.02;96366.59;612612;230;67167;-59
2023/04/15 07:29:50;;;;;;;;;;;;;;;21.08;52.43;96364.19;611587;230;67297;-59
2023/04/15 07:32:20;;;;;;;;;;;;;;;21.08;54.09;96364.98;611569;230;66216;-59
2023/04/15 07:34:47;;;;;;;;;;;;;;;21.08;53.82;96370.32;615110;230;64819;-59
2023/04/15 07:37:15;;;;;;;;;;;;;;;21.08;53.83;96375.66;615838;230;64850;-59
2023/04/15 07:39:42;;;;;;;;;;;;;;;21.08;54.72;96377.55;613837;230;63001;-59
2023/04/15 07:42:11;;;;;;;;;;;;;;;21.06;54.20;96375.97;613986;230;64998;-59
2023/04/15 07:44:38;;;;;;;;;;;;;;;21.06;54.88;96375.97;611554;230;67118;-59
2023/04/15 07:47:06;;;;;;;;;;;;;;;21.06;52.28;96369.80;615434;230;65112;-59
2023/04/15 07:49:33;;;;;;;;;;;;;;;21.07;53.46;96379.42;612845;230;66772;-59
2023/04/15 07:52:01;;;;;;;;;;;;;;;21.06;52.91;96375.97;614632;230;66869;-59
2023/04/15 07:54:28;;;;;;;;;;;;;;;21.06;51.22;96372.48;611555;230;64879;-59
2023/04/15 07:56:56;;;;;;;;;;;;;;;21.08;51.26;96369.53;615360;230;67364;-59
2023/04/15 07:59:23;;;;;;;;;;;;;;;21.08;52.65;96374.88;616266;230;67067;-59
2023/04/15 08:01:54;;;;;;;;;;;;;;;21.08;53.17;96377.55;611923;230;65124;-59
2023/04/15 08:04:21;;;;;;;;;;;;;;;21.08;51.05;96369.53;608651;232;67183;-59
2023/04/15 08:06:49;;;;;;;;;;;;;;;21.06;51.93;96370.63;611588;230;67012;-59
2023/04/15 08:09:17;;;;;;;;;;;;;;;21.06;52.18;96359.94;611545;230;65103;-59
2023/04/15 08:11:44;;;;;;;;;;;;;;;21.07;52.62;96363.40;613345;230;67209;-59
2023/04/15 08:14:12;;;;;;;;;;;;;;;21.06;50.71;96367.95;616622;230;67117;-59
2023/04/15 08:16:40;;;;;;;;;;;;;;;21.07;52.40;96368.74;616307;230;65069;-60
2023/04/15 08:19:08;;;;;;;;;;;;;;;21.08;53.79;96366.86;615927;230;67288;-59
2023/04/15 08:21:36;;;;;;;;;;;;;;;21.06;52.15;96357.27;611887;230;64929;-59
2023/04/15 08:24:03;;;;;;;;;;;;;;;21.06;53.21;96367.95;612287;230;62908;-59
2023/04/15 08:26:31;;;;;;;;;;;;;;;21.06;52.58;96365.28;611622;230;64972;-59
2023/04/15 08:28:58;;;;;;;;;;;;;;;21.05;51.05;96366.34;611579;230;64883;-59
2023/04/15 08:31:26;;;;;;;;;;;;;;;21.06;52.01;96359.94;614955;230;63838;-59
2023/04/15 08:33:55;;;;;;;;;;;;;;;21.05;52.65;96361.00;611591;230;65048;-59
2023/04/15 08:36:23;;;;;;;;;;;;;;;21.05;54.20;96354.88;611614;230;66866;-59
2023/04/15 08:38:50;;;;;;;;;;;;;;;21.04;53.50;96356.75;611634;230;65040;-59
2023/04/15 08:41:24;;;;;;;;;;;;;;;21.04;53.10;96356.75;611390;230;67222;-59
2023/04/15 08:43:55;;;;;;;;;;;;;;;21.04;54.53;96347.95;611622;230;65285;-59
2023/04/15 08:46:23;;;;;;;;;;;;;;;21.04;53.09;96348.73;612274;230;65041;-59
2023/04/15 08:48:51;;;;;;;;;;;;;;;21.04;52.78;96348.73;611909;230;67138;-59
2023/04/15 08:51:18;;;;;;;;;;;;;;;21.03;53.23;96347.16;611555;230;66911;-59
2023/04/15 08:53:46;;;;;;;;;;;;;;;21.03;52.45;96341.00;611549;230;63011;-59
2023/04/15 08:56:18;;;;;;;;;;;;;;;21.03;52.50;96344.48;613961;230;67272;-59
2023/04/15 08:58:46;;;;;;;;;;;;;;;21.03;53.43;96347.16;616278;230;67160;-59
2023/04/15 09:01:14;;;;;;;;;;;;;;;21.03;54.59;96338.33;611920;230;65076;-59
2023/04/15 09:03:41;;;;;;;;;;;;;;;21.02;52.99;96340.20;612897;230;64551;-59
2023/04/15 09:06:09;;;;;;;;;;;;;;;21.02;52.65;96342.87;614092;230;65906;-59
2023/04/15 09:08:37;;;;;;;;;;;;;;;21.03;54.12;96346.34;611516;231;65106;-59
2023/04/15 09:11:05;;;;;;;;;;;;;;;21.03;52.42;96347.16;611581;230;67446;-59
2023/04/15 09:13:33;;;;;;;;;;;;;;;21.02;53.36;96345.55;611590;230;67027;-59
2023/04/15 09:16:05;;;;;;;;;;;;;;;21.03;54.25;96349.02;612057;230;62915;-59
2023/04/15 09:18:36;;;;;;;;;;;;;;;21.03;52.99;96349.02;615048;230;67189;-59
2023/04/15 09:21:10;;;;;;;;;;;;;;;21.02;53.23;96340.20;616094;230;65099;-59
2023/04/15 09:23:39;;;;;;;;;;;;;;;21.02;52.82;96345.55;611556;230;65069;-59
2023/04/15 09:26:07;;;;;;;;;;;;;;;21.02;52.05;96337.53;611607;230;67263;-59
2023/04/15 09:28:36;;;;;;;;;;;;;;;21.01;51.75;96333.28;614590;230;67033;-59
2023/04/15 09:31:03;;;;;;;;;;;;;;;21.02;52.53;96337.53;612045;230;65063;-59
2023/04/15 09:33:31;;;;;;;;;;;;;;;21.02;53.09;96336.75;612566;230;67171;-59
2023/04/15 09:36:01;;;;;;;;;;;;;;;21.02;52.81;96332.19;614866;230;64944;-59
2023/04/15 09:38:28;;;;;;;;;;;;;;;21.01;52.64;96333.28;614813;230;63111;-59
2023/04/15 09:40:57;;;;;;;;;;;;;;;21.02;52.98;96332.19;616222;230;67213;-59
2023/04/15 09:43:40;;;;;;;;;;;;;;;21.01;54.01;96335.95;612325;230;64777;-59
2023/04/15 09:46:08;;;;;;;;;;;;;;;21.00;53.97;96329.01;616301;230;65070;-59
2023/04/15 09:48:36;;;;;;;;;;;;;;;21.02;55.17;96331.41;616345;230;67277;-59
2023/04/15 09:51:03;;;;;;;;;;;;;;;21.00;53.76;96330.89;616175;230;66513;-59
2023/04/15 09:53:32;;;;;;;;;;;;;;;21.00;51.53;96333.56;611840;230;64872;-59
2023/04/15 09:56:01;;;;;;;;;;;;;;;21.00;53.59;96331.67;614164;230;64569;-59
2023/04/15 09:58:29;;;;;;;;;;;;;;;21.00;52.32;96338.91;616240;230;67286;-59
2023/04/15 10:00:58;;;;;;;;;;;;;;;21.00;52.54;96328.22;616808;230;62977;-59
2023/04/15 10:03:27;;;;;;;;;;;;;;;21.00;52.71;96328.22;611057;230;66976;-59
2023/04/15 10:05:56;;;;;;;;;;;;;;;20.99;56.31;96324.76;610225;231;66912;-59
2023/04/15 10:08:24;;;;;;;;;;;;;;;20.98;52.91;96328.52;614802;230;62996;-59
2023/04/15 10:10:52;;;;;;;;;;;;;;;20.99;53.58;96329.31;612683;230;66976;-59
2023/04/15 10:13:27;;;;;;;;;;;;;;;20.99;52.57;96327.42;611549;230;67143;-59
2023/04/15 10:15:52;;;;;;;;;;;;;;;20.98;53.37;96336.53;611315;230;65132;-59
2023/04/15 10:18:24;;;;;;;;;;;;;;;20.99;53.32;96330.10;610023;230;66591;-59
2023/04/15 10:20:50;;;;;;;;;;;;;;;20.98;55.06;96339.20;612301;230;66968;-59
2023/04/15 10:23:17;;;;;;;;;;;;;;;20.98;53.18;96336.53;612062;230;63035;-59
2023/04/15 10:25:46;;;;;;;;;;;;;;;20.98;52.72;96333.05;614900;230;65238;-59
2023/04/15 10:28:14;;;;;;;;;;;;;;;20.97;51.79;96334.14;611636;230;66912;-59
2023/04/15 10:30:42;;;;;;;;;;;;;;;20.97;52.96;96329.58;614827;230;65041;-59
2023/04/15 10:33:10;;;;;;;;;;;;;;;20.97;53.84;96326.91;612028;230;67203;-59
2023/04/15 10:35:38;;;;;;;;;;;;;;;20.97;51.47;96326.91;611600;230;67031;-59
2023/04/15 10:38:10;;;;;;;;;;;;;;;20.96;52.23;96319.99;611560;230;65109;-59
2023/04/15 10:40:38;;;;;;;;;;;;;;;20.97;54.43;96321.57;608650;229;67231;-59
2023/04/15 10:43:06;;;;;;;;;;;;;;;20.96;53.32;96319.99;611517;230;67128;-59
2023/04/15 10:45:40;;;;;;;;;;;;;;;20.96;54.27;96319.99;611583;230;65112;-59
2023/04/15 10:48:06;;;;;;;;;;;;;;;20.95;53.40;96321.09;611908;230;65074;-59
2023/04/15 10:50:33;;;;;;;;;;;;;;;20.94;52.70;96314.13;612029;230;64935;-59
2023/04/15 10:53:03;;;;;;;;;;;;;;;20.95;53.48;96310.41;611640;230;63079;-59
2023/04/15 10:55:32;;;;;;;;;;;;;;;20.95;53.96;96307.73;612332;230;67357;-59
2023/04/15 10:58:01;;;;;;;;;;;;;;;20.94;53.83;96308.80;614413;230;67090;-59
2023/04/15 11:00:29;;;;;;;;;;;;;;;20.94;54.23;96306.13;612304;230;63142;-59
2023/04/15 11:03:01;;;;;;;;;;;;;;;20.93;52.71;96304.55;611826;230;67243;-59
2023/04/15 11:05:30;;;;;;;;;;;;;;;20.93;54.59;96296.53;614570;229;66744;-59
2023/04/15 11:07:58;;;;;;;;;;;;;;;20.94;54.09;96295.44;612292;230;65073;-59
2023/04/15 11:10:27;;;;;;;;;;;;;;;20.94;52.28;96294.65;616435;229;67213;-59
2023/04/15 11:12:59;;;;;;;;;;;;;;;20.94;54.30;96295.44;616204;229;65323;-59
2023/04/15 11:15:31;;;;;;;;;;;;;;;20.93;53.39;96298.41;612637;230;63087;-59
2023/04/15 11:18:12;;;;;;;;;;;;;;;20.93;52.87;96288.52;611532;230;66110;-59
2023/04/15 11:20:41;;;;;;;;;;;;;;;20.93;54.74;96291.19;614687;230;67048;-59
2023/04/15 11:23:09;;;;;;;;;;;;;;;20.93;53.22;96291.19;611966;230;65081;-59
2023/04/15 11:25:36;;;;;;;;;;;;;;;20.94;53.13;96289.31;612537;230;67269;-59
2023/04/15 11:28:04;;;;;;;;;;;;;;;20.92;53.53;96294.92;611583;230;65127;-59
2023/04/15 11:30:34;;;;;;;;;;;;;;;20.92;52.69;96300.27;614509;227;64966;-59
2023/04/15 11:33:03;;;;;;;;;;;;;;;20.93;53.84;96309.09;612214;230;66894;-61
2023/04/15 11:35:31;;;;;;;;;;;;;;;20.93;53.15;96317.11;611622;230;64979;-59
2023/04/15 11:38:01;;;;;;;;;;;;;;;20.92;53.39;96310.95;611573;230;65073;-59
2023/04/15 11:40:29;;;;;;;;;;;;;;;20.93;52.71;96315.23;611570;230;68095;-60
2023/04/15 11:43:08;;;;;;;;;;;;;;;20.92;53.34;96312.83;615289;230;67100;-59
2023/04/15 11:45:36;;;;;;;;;;;;;;;20.93;54.22;96309.09;615230;230;62907;-58
2023/04/15 11:48:08;;;;;;;;;;;;;;;20.90;54.83;96305.13;611577;230;67270;-58
2023/04/15 11:50:36;;;;;;;;;;;;;;;20.92;53.71;96302.15;612410;230;67071;-58
2023/04/15 11:53:04;;;;;;;;;;;;;;;20.90;53.85;96297.11;611698;230;65029;-58
2023/04/15 11:55:33;;;;;;;;;;;;;;;20.90;52.32;96304.30;615355;230;64979;-58
2023/04/15 11:58:07;;;;;;;;;;;;;;;20.90;53.47;96302.45;613428;230;47788;-59
2023/04/15 12:00:36;;;;;;;;;;;;;;;20.91;52.85;96292.56;616668;230;63021;-59
2023/04/15 12:03:14;;;;;;;;;;;;;;;20.90;53.64;96294.44;612417;230;67110;-58
2023/04/15 12:05:59;;;;;;;;;;;;;;;20.90;52.84;96285.61;599936;235;64792;-59
2023/04/15 12:08:28;;;;;;;;;;;;;;;20.90;52.29;96299.78;616262;230;63028;-59
2023/04/15 12:10:57;;;;;;;;;;;;;;;20.90;53.12;96291.77;611840;230;64986;-59
2023/04/15 12:13:26;;;;;;;;;;;;;;;20.90;53.25;96290.95;616092;230;65054;-59
2023/04/15 12:15:55;;;;;;;;;;;;;;;20.89;53.60;96279.48;614632;230;64989;-59
2023/04/15 12:18:24;;;;;;;;;;;;;;;20.89;53.08;96290.16;614147;230;65087;-59
2023/04/15 12:20:53;;;;;;;;;;;;;;;20.89;53.48;96292.83;612788;230;66622;-59
2023/04/15 12:23:21;;;;;;;;;;;;;;;20.89;53.77;96290.16;615339;230;65132;-59
2023/04/15 12:25:51;;;;;;;;;;;;;;;20.89;53.99;96282.15;613085;230;64928;-59
2023/04/15 12:28:19;;;;;;;;;;;;;;;20.89;54.00;96276.80;613819;230;67338;-59
2023/04/15 12:30:53;;;;;;;;;;;;;;;20.89;52.89;96286.70;611581;230;65005;-59
2023/04/15 12:33:20;;;;;;;;;;;;;;;20.88;51.76;96275.23;612144;230;67335;-59
2023/04/15 12:35:48;;;;;;;;;;;;;;;20.88;53.00;96283.23;614814;230;67073;-59
2023/04/15 12:38:15;;;;;;;;;;;;;;;20.89;54.11;96273.34;612214;230;65052;-59
2023/04/15 12:40:43;;;;;;;;;;;;;;;20.88;54.20;96269.89;615189;230;67343;-59
2023/04/15 12:43:10;;;;;;;;;;;;;;;20.89;54.04;96268.00;612322;230;64496;-59
2023/04/15 12:45:38;;;;;;;;;;;;;;;20.88;53.34;96259.20;615212;230;63103;-59
2023/04/15 12:48:08;;;;;;;;;;;;;;;20.87;53.54;96260.30;613693;230;66915;-59
2023/04/15 12:50:35;;;;;;;;;;;;;;;20.88;53.46;96263.76;613298;230;66871;-59
2023/04/15 12:53:03;;;;;;;;;;;;;;;20.87;53.59;96257.63;611539;230;65035;-59